sensor_id;sensor_type;location;lat;lon;timestamp;P1;durP1;ratioP1;P2;durP2;ratioP2
9761;SDS011;4920;49.594;11.022;2023-07-30T00:00:54;3.58;;;2.33;;
9761;SDS011;4920;49.594;11.022;2023-07-30T00:03:23;5.75;;;2.90;;
9761;SDS011;4920;49.594;11.022;2023-07-30T00:05:52;4.45;;;3.03;;
9761;SDS011;4920;49.594;11.022;2023-07-30T00:08:21;4.60;;;3.00;;
9761;SDS011;4920;49.594;11.022;2023-07-30T00:10:52;3.97;;;3.25;;
9761;SDS011;4920;49.594;11.022;2023-07-30T00:13:21;4.47;;;2.80;;
9761;SDS011;4920;49.594;11.022;2023-07-30T00:15:49;5.40;;;2.75;;
9761;SDS011;4920;49.594;11.022;2023-07-30T00:18:18;3.10;;;2.80;;
9761;SDS011;4920;49.594;11.022;2023-07-30T00:20:47;3.08;;;2.75;;
9761;SDS011;4920;49.594;11.022;2023-07-30T00:23:16;3.25;;;2.65;;
9761;SDS011;4920;49.594;11.022;2023-07-30T00:25:45;5.03;;;3.15;;
9761;SDS011;4920;49.594;11.022;2023-07-30T00:28:15;3.00;;;2.67;;
9761;SDS011;4920;49.594;11.022;2023-07-30T00:30:44;3.83;;;2.75;;
9761;SDS011;4920;49.594;11.022;2023-07-30T00:33:13;3.22;;;2.58;;
9761;SDS011;4920;49.594;11.022;2023-07-30T00:35:42;4.05;;;2.63;;
9761;SDS011;4920;49.594;11.022;2023-07-30T00:38:11;3.42;;;2.70;;
9761;SDS011;4920;49.594;11.022;2023-07-30T00:40:41;3.30;;;2.75;;
9761;SDS011;4920;49.594;11.022;2023-07-30T00:43:09;3.30;;;2.60;;
9761;SDS011;4920;49.594;11.022;2023-07-30T00:45:41;3.75;;;2.67;;
9761;SDS011;4920;49.594;11.022;2023-07-30T00:48:12;3.75;;;2.60;;
9761;SDS011;4920;49.594;11.022;2023-07-30T00:50:42;6.78;;;2.75;;
9761;SDS011;4920;49.594;11.022;2023-07-30T00:53:11;4.35;;;2.60;;
9761;SDS011;4920;49.594;11.022;2023-07-30T00:55:42;4.88;;;2.65;;
9761;SDS011;4920;49.594;11.022;2023-07-30T00:58:12;5.68;;;2.55;;
9761;SDS011;4920;49.594;11.022;2023-07-30T01:00:42;3.17;;;2.70;;
9761;SDS011;4920;49.594;11.022;2023-07-30T01:03:11;6.03;;;3.00;;
9761;SDS011;4920;49.594;11.022;2023-07-30T01:05:40;3.25;;;2.80;;
9761;SDS011;4920;49.594;11.022;2023-07-30T01:08:09;4.70;;;2.80;;
9761;SDS011;4920;49.594;11.022;2023-07-30T01:10:41;4.03;;;3.17;;
9761;SDS011;4920;49.594;11.022;2023-07-30T01:13:10;4.07;;;3.15;;
9761;SDS011;4920;49.594;11.022;2023-07-30T01:15:41;3.88;;;3.10;;
9761;SDS011;4920;49.594;11.022;2023-07-30T01:18:11;3.65;;;3.20;;
9761;SDS011;4920;49.594;11.022;2023-07-30T01:20:40;4.75;;;3.20;;
9761;SDS011;4920;49.594;11.022;2023-07-30T01:23:10;4.40;;;3.03;;
9761;SDS011;4920;49.594;11.022;2023-07-30T01:25:39;4.03;;;3.00;;
9761;SDS011;4920;49.594;11.022;2023-07-30T01:28:09;3.67;;;3.00;;
9761;SDS011;4920;49.594;11.022;2023-07-30T01:30:45;4.40;;;3.38;;
9761;SDS011;4920;49.594;11.022;2023-07-30T01:33:15;3.50;;;3.10;;
9761;SDS011;4920;49.594;11.022;2023-07-30T01:35:44;7.40;;;3.42;;
9761;SDS011;4920;49.594;11.022;2023-07-30T01:38:14;3.92;;;3.00;;
9761;SDS011;4920;49.594;11.022;2023-07-30T01:40:44;6.50;;;3.42;;
9761;SDS011;4920;49.594;11.022;2023-07-30T01:43:12;5.70;;;3.40;;
9761;SDS011;4920;49.594;11.022;2023-07-30T01:45:41;3.85;;;3.35;;
9761;SDS011;4920;49.594;11.022;2023-07-30T01:48:10;5.05;;;3.63;;
9761;SDS011;4920;49.594;11.022;2023-07-30T01:50:39;6.45;;;3.80;;
9761;SDS011;4920;49.594;11.022;2023-07-30T01:53:08;3.80;;;3.40;;
9761;SDS011;4920;49.594;11.022;2023-07-30T01:55:38;4.25;;;3.50;;
9761;SDS011;4920;49.594;11.022;2023-07-30T01:58:10;4.50;;;3.70;;
9761;SDS011;4920;49.594;11.022;2023-07-30T02:00:39;4.25;;;3.63;;
9761;SDS011;4920;49.594;11.022;2023-07-30T02:03:08;6.47;;;3.88;;
9761;SDS011;4920;49.594;11.022;2023-07-30T02:05:37;5.80;;;4.20;;
9761;SDS011;4920;49.594;11.022;2023-07-30T02:08:06;5.32;;;3.85;;
9761;SDS011;4920;49.594;11.022;2023-07-30T02:10:34;4.72;;;3.85;;
9761;SDS011;4920;49.594;11.022;2023-07-30T02:13:05;4.70;;;3.50;;
9761;SDS011;4920;49.594;11.022;2023-07-30T02:15:33;4.38;;;3.95;;
9761;SDS011;4920;49.594;11.022;2023-07-30T02:18:02;4.47;;;4.07;;
9761;SDS011;4920;49.594;11.022;2023-07-30T02:20:31;6.13;;;4.28;;
9761;SDS011;4920;49.594;11.022;2023-07-30T02:23:20;5.50;;;4.20;;
9761;SDS011;4920;49.594;11.022;2023-07-30T02:25:48;5.35;;;3.80;;
9761;SDS011;4920;49.594;11.022;2023-07-30T02:28:19;4.28;;;3.65;;
9761;SDS011;4920;49.594;11.022;2023-07-30T02:30:48;3.88;;;3.47;;
9761;SDS011;4920;49.594;11.022;2023-07-30T02:33:16;4.10;;;3.70;;
9761;SDS011;4920;49.594;11.022;2023-07-30T02:35:45;5.03;;;3.75;;
9761;SDS011;4920;49.594;11.022;2023-07-30T02:38:14;4.57;;;3.83;;
9761;SDS011;4920;49.594;11.022;2023-07-30T02:40:43;4.47;;;3.78;;
9761;SDS011;4920;49.594;11.022;2023-07-30T02:43:11;4.32;;;3.58;;
9761;SDS011;4920;49.594;11.022;2023-07-30T02:45:42;4.40;;;4.00;;
9761;SDS011;4920;49.594;11.022;2023-07-30T02:48:11;5.43;;;4.05;;
9761;SDS011;4920;49.594;11.022;2023-07-30T02:50:39;5.20;;;4.45;;
9761;SDS011;4920;49.594;11.022;2023-07-30T02:53:08;4.55;;;4.10;;
9761;SDS011;4920;49.594;11.022;2023-07-30T02:55:37;6.07;;;4.53;;
9761;SDS011;4920;49.594;11.022;2023-07-30T02:58:06;6.03;;;4.20;;
9761;SDS011;4920;49.594;11.022;2023-07-30T03:00:34;6.55;;;4.40;;
9761;SDS011;4920;49.594;11.022;2023-07-30T03:03:05;5.57;;;4.28;;
9761;SDS011;4920;49.594;11.022;2023-07-30T03:05:34;5.15;;;4.50;;
9761;SDS011;4920;49.594;11.022;2023-07-30T03:08:03;5.70;;;4.22;;
9761;SDS011;4920;49.594;11.022;2023-07-30T03:10:32;4.60;;;4.20;;
9761;SDS011;4920;49.594;11.022;2023-07-30T03:13:00;5.88;;;4.47;;
9761;SDS011;4920;49.594;11.022;2023-07-30T03:15:29;4.72;;;4.18;;
9761;SDS011;4920;49.594;11.022;2023-07-30T03:17:58;4.75;;;4.28;;
9761;SDS011;4920;49.594;11.022;2023-07-30T03:20:29;5.60;;;4.60;;
9761;SDS011;4920;49.594;11.022;2023-07-30T03:22:58;6.10;;;4.53;;
9761;SDS011;4920;49.594;11.022;2023-07-30T03:25:27;4.95;;;4.40;;
9761;SDS011;4920;49.594;11.022;2023-07-30T03:27:55;6.40;;;4.30;;
9761;SDS011;4920;49.594;11.022;2023-07-30T03:30:24;6.72;;;4.20;;
9761;SDS011;4920;49.594;11.022;2023-07-30T03:32:53;5.03;;;4.25;;
9761;SDS011;4920;49.594;11.022;2023-07-30T03:35:22;6.55;;;4.38;;
9761;SDS011;4920;49.594;11.022;2023-07-30T03:37:52;4.57;;;4.07;;
9761;SDS011;4920;49.594;11.022;2023-07-30T03:40:22;5.10;;;4.60;;
9761;SDS011;4920;49.594;11.022;2023-07-30T03:42:51;6.20;;;4.78;;
9761;SDS011;4920;49.594;11.022;2023-07-30T03:45:20;4.97;;;4.30;;
9761;SDS011;4920;49.594;11.022;2023-07-30T03:47:49;5.18;;;4.60;;
9761;SDS011;4920;49.594;11.022;2023-07-30T03:50:18;7.28;;;4.40;;
9761;SDS011;4920;49.594;11.022;2023-07-30T03:52:47;5.70;;;4.38;;
9761;SDS011;4920;49.594;11.022;2023-07-30T03:55:18;4.68;;;4.28;;
9761;SDS011;4920;49.594;11.022;2023-07-30T03:57:46;5.35;;;4.28;;
9761;SDS011;4920;49.594;11.022;2023-07-30T04:00:15;4.88;;;4.38;;
9761;SDS011;4920;49.594;11.022;2023-07-30T04:02:44;5.22;;;4.28;;
9761;SDS011;4920;49.594;11.022;2023-07-30T04:05:13;4.85;;;4.20;;
9761;SDS011;4920;49.594;11.022;2023-07-30T04:07:41;5.65;;;4.40;;
9761;SDS011;4920;49.594;11.022;2023-07-30T04:10:10;6.43;;;4.05;;
9761;SDS011;4920;49.594;11.022;2023-07-30T04:12:40;4.25;;;3.67;;
9761;SDS011;4920;49.594;11.022;2023-07-30T04:15:09;5.85;;;4.03;;
9761;SDS011;4920;49.594;11.022;2023-07-30T04:17:38;4.90;;;3.83;;
9761;SDS011;4920;49.594;11.022;2023-07-30T04:20:07;6.30;;;4.30;;
9761;SDS011;4920;49.594;11.022;2023-07-30T04:22:37;6.65;;;4.05;;
9761;SDS011;4920;49.594;11.022;2023-07-30T04:25:08;7.03;;;4.07;;
9761;SDS011;4920;49.594;11.022;2023-07-30T04:27:38;5.82;;;4.82;;
9761;SDS011;4920;49.594;11.022;2023-07-30T04:30:08;5.50;;;4.80;;
9761;SDS011;4920;49.594;11.022;2023-07-30T04:32:37;4.78;;;4.15;;
9761;SDS011;4920;49.594;11.022;2023-07-30T04:35:07;4.82;;;4.30;;
9761;SDS011;4920;49.594;11.022;2023-07-30T04:37:36;4.95;;;4.55;;
9761;SDS011;4920;49.594;11.022;2023-07-30T04:40:05;4.47;;;4.07;;
9761;SDS011;4920;49.594;11.022;2023-07-30T04:42:35;6.50;;;4.10;;
9761;SDS011;4920;49.594;11.022;2023-07-30T04:45:04;4.57;;;3.42;;
9761;SDS011;4920;49.594;11.022;2023-07-30T04:47:38;7.10;;;3.70;;
9761;SDS011;4920;49.594;11.022;2023-07-30T04:50:07;5.13;;;3.42;;
9761;SDS011;4920;49.594;11.022;2023-07-30T04:52:38;5.13;;;3.83;;
9761;SDS011;4920;49.594;11.022;2023-07-30T04:55:07;5.35;;;4.03;;
9761;SDS011;4920;49.594;11.022;2023-07-30T04:57:36;4.93;;;3.80;;
9761;SDS011;4920;49.594;11.022;2023-07-30T05:00:06;5.35;;;4.00;;
9761;SDS011;4920;49.594;11.022;2023-07-30T05:02:35;5.30;;;3.47;;
9761;SDS011;4920;49.594;11.022;2023-07-30T05:05:06;3.80;;;3.50;;
9761;SDS011;4920;49.594;11.022;2023-07-30T05:07:35;4.35;;;3.80;;
9761;SDS011;4920;49.594;11.022;2023-07-30T05:10:04;7.32;;;3.80;;
9761;SDS011;4920;49.594;11.022;2023-07-30T05:12:37;5.57;;;3.80;;
9761;SDS011;4920;49.594;11.022;2023-07-30T05:15:06;4.85;;;3.55;;
9761;SDS011;4920;49.594;11.022;2023-07-30T05:17:35;7.32;;;3.80;;
9761;SDS011;4920;49.594;11.022;2023-07-30T05:20:06;3.97;;;3.67;;
9761;SDS011;4920;49.594;11.022;2023-07-30T05:22:36;4.28;;;3.60;;
9761;SDS011;4920;49.594;11.022;2023-07-30T05:25:05;4.57;;;3.78;;
9761;SDS011;4920;49.594;11.022;2023-07-30T05:27:34;6.10;;;3.90;;
9761;SDS011;4920;49.594;11.022;2023-07-30T05:30:04;5.18;;;3.58;;
9761;SDS011;4920;49.594;11.022;2023-07-30T05:32:34;3.92;;;3.63;;
9761;SDS011;4920;49.594;11.022;2023-07-30T05:35:04;4.30;;;3.45;;
9761;SDS011;4920;49.594;11.022;2023-07-30T05:37:35;5.30;;;3.35;;
9761;SDS011;4920;49.594;11.022;2023-07-30T05:40:04;3.28;;;2.80;;
9761;SDS011;4920;49.594;11.022;2023-07-30T05:42:34;6.15;;;2.92;;
9761;SDS011;4920;49.594;11.022;2023-07-30T05:45:03;4.60;;;3.28;;
9761;SDS011;4920;49.594;11.022;2023-07-30T05:47:32;3.40;;;3.05;;
9761;SDS011;4920;49.594;11.022;2023-07-30T05:50:01;3.45;;;2.75;;
9761;SDS011;4920;49.594;11.022;2023-07-30T05:52:32;2.88;;;2.60;;
9761;SDS011;4920;49.594;11.022;2023-07-30T05:55:00;2.67;;;2.30;;
9761;SDS011;4920;49.594;11.022;2023-07-30T05:57:29;2.60;;;2.40;;
9761;SDS011;4920;49.594;11.022;2023-07-30T05:59:58;2.65;;;2.40;;
9761;SDS011;4920;49.594;11.022;2023-07-30T06:02:37;4.47;;;2.10;;
9761;SDS011;4920;49.594;11.022;2023-07-30T06:05:06;3.28;;;2.22;;
9761;SDS011;4920;49.594;11.022;2023-07-30T06:07:37;2.30;;;1.92;;
9761;SDS011;4920;49.594;11.022;2023-07-30T06:10:06;2.47;;;1.90;;
9761;SDS011;4920;49.594;11.022;2023-07-30T06:12:36;3.45;;;2.20;;
9761;SDS011;4920;49.594;11.022;2023-07-30T06:15:05;2.58;;;2.15;;
9761;SDS011;4920;49.594;11.022;2023-07-30T06:17:35;2.20;;;2.00;;
9761;SDS011;4920;49.594;11.022;2023-07-30T06:20:04;3.85;;;2.17;;
9761;SDS011;4920;49.594;11.022;2023-07-30T06:22:33;3.08;;;2.30;;
9761;SDS011;4920;49.594;11.022;2023-07-30T06:25:04;2.90;;;1.80;;
9761;SDS011;4920;49.594;11.022;2023-07-30T06:27:34;3.13;;;2.17;;
9761;SDS011;4920;49.594;11.022;2023-07-30T06:30:03;2.72;;;1.90;;
9761;SDS011;4920;49.594;11.022;2023-07-30T06:32:32;2.75;;;1.98;;
9761;SDS011;4920;49.594;11.022;2023-07-30T06:35:01;2.22;;;2.03;;
9761;SDS011;4920;49.594;11.022;2023-07-30T06:37:30;3.67;;;2.30;;
9761;SDS011;4920;49.594;11.022;2023-07-30T06:39:59;2.42;;;2.20;;
9761;SDS011;4920;49.594;11.022;2023-07-30T06:42:32;4.32;;;1.90;;
9761;SDS011;4920;49.594;11.022;2023-07-30T06:45:01;2.33;;;2.00;;
9761;SDS011;4920;49.594;11.022;2023-07-30T06:47:29;3.95;;;1.80;;
9761;SDS011;4920;49.594;11.022;2023-07-30T06:50:02;2.88;;;1.98;;
9761;SDS011;4920;49.594;11.022;2023-07-30T06:52:32;2.03;;;1.70;;
9761;SDS011;4920;49.594;11.022;2023-07-30T06:55:00;3.42;;;2.05;;
9761;SDS011;4920;49.594;11.022;2023-07-30T06:57:30;2.15;;;1.85;;
9761;SDS011;4920;49.594;11.022;2023-07-30T07:00:00;1.80;;;1.70;;
9761;SDS011;4920;49.594;11.022;2023-07-30T07:02:30;2.00;;;1.60;;
9761;SDS011;4920;49.594;11.022;2023-07-30T07:05:00;3.40;;;2.00;;
9761;SDS011;4920;49.594;11.022;2023-07-30T07:07:28;2.08;;;1.73;;
9761;SDS011;4920;49.594;11.022;2023-07-30T07:09:58;3.53;;;1.85;;
9761;SDS011;4920;49.594;11.022;2023-07-30T07:12:26;2.95;;;1.65;;
9761;SDS011;4920;49.594;11.022;2023-07-30T07:14:57;1.88;;;1.67;;
9761;SDS011;4920;49.594;11.022;2023-07-30T07:17:28;3.67;;;1.75;;
9761;SDS011;4920;49.594;11.022;2023-07-30T07:19:57;3.78;;;1.90;;
9761;SDS011;4920;49.594;11.022;2023-07-30T07:22:26;3.47;;;1.98;;
9761;SDS011;4920;49.594;11.022;2023-07-30T07:24:55;6.10;;;4.95;;
9761;SDS011;4920;49.594;11.022;2023-07-30T07:27:23;3.63;;;3.08;;
9761;SDS011;4920;49.594;11.022;2023-07-30T07:29:52;8.52;;;3.35;;
9761;SDS011;4920;49.594;11.022;2023-07-30T07:32:22;2.15;;;1.80;;
9761;SDS011;4920;49.594;11.022;2023-07-30T07:34:51;2.63;;;2.00;;
9761;SDS011;4920;49.594;11.022;2023-07-30T07:37:20;2.10;;;1.70;;
9761;SDS011;4920;49.594;11.022;2023-07-30T07:39:49;3.55;;;1.88;;
9761;SDS011;4920;49.594;11.022;2023-07-30T07:42:18;2.90;;;1.95;;
9761;SDS011;4920;49.594;11.022;2023-07-30T07:44:47;2.58;;;2.00;;
9761;SDS011;4920;49.594;11.022;2023-07-30T07:47:16;2.00;;;1.80;;
9761;SDS011;4920;49.594;11.022;2023-07-30T07:49:46;2.35;;;1.85;;
9761;SDS011;4920;49.594;11.022;2023-07-30T07:52:15;3.50;;;1.90;;
9761;SDS011;4920;49.594;11.022;2023-07-30T07:54:44;2.83;;;1.77;;
9761;SDS011;4920;49.594;11.022;2023-07-30T07:57:13;2.97;;;1.90;;
9761;SDS011;4920;49.594;11.022;2023-07-30T07:59:41;2.15;;;1.70;;
9761;SDS011;4920;49.594;11.022;2023-07-30T08:02:11;3.85;;;1.65;;
9761;SDS011;4920;49.594;11.022;2023-07-30T08:04:40;3.40;;;1.80;;
9761;SDS011;4920;49.594;11.022;2023-07-30T08:07:11;2.85;;;1.80;;
9761;SDS011;4920;49.594;11.022;2023-07-30T08:09:40;1.90;;;1.70;;
9761;SDS011;4920;49.594;11.022;2023-07-30T08:12:08;1.90;;;1.80;;
9761;SDS011;4920;49.594;11.022;2023-07-30T08:14:39;2.05;;;1.63;;
9761;SDS011;4920;49.594;11.022;2023-07-30T08:17:08;2.78;;;1.80;;
9761;SDS011;4920;49.594;11.022;2023-07-30T08:19:36;2.47;;;1.70;;
9761;SDS011;4920;49.594;11.022;2023-07-30T08:22:05;1.85;;;1.63;;
9761;SDS011;4920;49.594;11.022;2023-07-30T08:24:35;4.60;;;1.98;;
9761;SDS011;4920;49.594;11.022;2023-07-30T08:27:04;2.63;;;1.73;;
9761;SDS011;4920;49.594;11.022;2023-07-30T08:29:33;2.13;;;1.92;;
9761;SDS011;4920;49.594;11.022;2023-07-30T08:32:05;1.90;;;1.80;;
9761;SDS011;4920;49.594;11.022;2023-07-30T08:34:34;2.08;;;1.80;;
9761;SDS011;4920;49.594;11.022;2023-07-30T08:37:03;2.83;;;1.70;;
9761;SDS011;4920;49.594;11.022;2023-07-30T08:39:32;2.30;;;1.83;;
9761;SDS011;4920;49.594;11.022;2023-07-30T08:42:02;2.05;;;1.85;;
9761;SDS011;4920;49.594;11.022;2023-07-30T08:44:31;2.78;;;1.90;;
9761;SDS011;4920;49.594;11.022;2023-07-30T08:47:00;2.28;;;1.70;;
9761;SDS011;4920;49.594;11.022;2023-07-30T08:49:30;2.13;;;1.90;;
9761;SDS011;4920;49.594;11.022;2023-07-30T08:51:59;3.15;;;1.70;;
9761;SDS011;4920;49.594;11.022;2023-07-30T08:54:31;1.75;;;1.65;;
9761;SDS011;4920;49.594;11.022;2023-07-30T08:57:01;2.08;;;1.85;;
9761;SDS011;4920;49.594;11.022;2023-07-30T08:59:31;1.92;;;1.80;;
9761;SDS011;4920;49.594;11.022;2023-07-30T09:02:05;1.90;;;1.80;;
9761;SDS011;4920;49.594;11.022;2023-07-30T09:04:41;2.20;;;1.90;;
9761;SDS011;4920;49.594;11.022;2023-07-30T09:07:13;2.33;;;1.63;;
9761;SDS011;4920;49.594;11.022;2023-07-30T09:09:41;4.15;;;2.30;;
9761;SDS011;4920;49.594;11.022;2023-07-30T09:12:14;2.15;;;1.83;;
9761;SDS011;4920;49.594;11.022;2023-07-30T09:14:43;2.10;;;1.90;;
9761;SDS011;4920;49.594;11.022;2023-07-30T09:17:16;4.05;;;1.98;;
9761;SDS011;4920;49.594;11.022;2023-07-30T09:19:45;3.22;;;1.83;;
9761;SDS011;4920;49.594;11.022;2023-07-30T09:22:19;2.67;;;2.05;;
9761;SDS011;4920;49.594;11.022;2023-07-30T09:24:48;2.28;;;2.00;;
9761;SDS011;4920;49.594;11.022;2023-07-30T09:27:21;2.53;;;1.80;;
9761;SDS011;4920;49.594;11.022;2023-07-30T09:29:53;2.63;;;1.80;;
9761;SDS011;4920;49.594;11.022;2023-07-30T09:32:25;5.38;;;1.85;;
9761;SDS011;4920;49.594;11.022;2023-07-30T09:34:54;2.65;;;1.90;;
9761;SDS011;4920;49.594;11.022;2023-07-30T09:37:23;3.45;;;2.10;;
9761;SDS011;4920;49.594;11.022;2023-07-30T09:39:52;2.47;;;1.98;;
9761;SDS011;4920;49.594;11.022;2023-07-30T09:42:22;3.22;;;1.95;;
9761;SDS011;4920;49.594;11.022;2023-07-30T09:44:58;2.92;;;1.92;;
9761;SDS011;4920;49.594;11.022;2023-07-30T09:47:27;2.00;;;1.80;;
9761;SDS011;4920;49.594;11.022;2023-07-30T09:49:59;3.80;;;2.03;;
9761;SDS011;4920;49.594;11.022;2023-07-30T09:52:28;2.08;;;1.80;;
9761;SDS011;4920;49.594;11.022;2023-07-30T09:54:58;2.47;;;1.70;;
9761;SDS011;4920;49.594;11.022;2023-07-30T09:57:28;2.03;;;1.70;;
9761;SDS011;4920;49.594;11.022;2023-07-30T09:59:57;2.28;;;2.00;;
9761;SDS011;4920;49.594;11.022;2023-07-30T10:02:30;1.88;;;1.70;;
9761;SDS011;4920;49.594;11.022;2023-07-30T10:04:59;2.25;;;1.80;;
9761;SDS011;4920;49.594;11.022;2023-07-30T10:07:30;1.80;;;1.70;;
9761;SDS011;4920;49.594;11.022;2023-07-30T10:09:59;1.90;;;1.58;;
9761;SDS011;4920;49.594;11.022;2023-07-30T10:12:32;2.60;;;1.65;;
9761;SDS011;4920;49.594;11.022;2023-07-30T10:15:04;1.33;;;1.23;;
9761;SDS011;4920;49.594;11.022;2023-07-30T10:17:35;3.58;;;1.48;;
9761;SDS011;4920;49.594;11.022;2023-07-30T10:20:20;1.60;;;1.40;;
9761;SDS011;4920;49.594;11.022;2023-07-30T10:22:51;2.15;;;1.60;;
9761;SDS011;4920;49.594;11.022;2023-07-30T10:25:21;1.60;;;1.50;;
9761;SDS011;4920;49.594;11.022;2023-07-30T10:27:55;1.55;;;1.30;;
9761;SDS011;4920;49.594;11.022;2023-07-30T10:30:31;1.85;;;1.30;;
9761;SDS011;4920;49.594;11.022;2023-07-30T10:33:02;4.95;;;1.40;;
9761;SDS011;4920;49.594;11.022;2023-07-30T10:35:35;1.60;;;1.50;;
9761;SDS011;4920;49.594;11.022;2023-07-30T10:38:13;1.60;;;1.50;;
9761;SDS011;4920;49.594;11.022;2023-07-30T10:41:00;1.70;;;1.60;;
9761;SDS011;4920;49.594;11.022;2023-07-30T10:43:33;1.58;;;1.38;;
9761;SDS011;4920;49.594;11.022;2023-07-30T10:46:02;2.55;;;1.40;;
9761;SDS011;4920;49.594;11.022;2023-07-30T10:48:32;1.80;;;1.42;;
9761;SDS011;4920;49.594;11.022;2023-07-30T10:51:02;1.90;;;1.30;;
9761;SDS011;4920;49.594;11.022;2023-07-30T10:53:32;1.40;;;1.30;;
9761;SDS011;4920;49.594;11.022;2023-07-30T10:56:03;1.63;;;1.33;;
9761;SDS011;4920;49.594;11.022;2023-07-30T10:58:34;1.50;;;1.40;;
9761;SDS011;4920;49.594;11.022;2023-07-30T11:01:04;1.80;;;1.27;;
9761;SDS011;4920;49.594;11.022;2023-07-30T11:03:34;1.60;;;1.50;;
9761;SDS011;4920;49.594;11.022;2023-07-30T11:06:05;1.50;;;1.40;;
9761;SDS011;4920;49.594;11.022;2023-07-30T11:08:35;2.08;;;1.50;;
9761;SDS011;4920;49.594;11.022;2023-07-30T11:11:05;2.58;;;1.40;;
9761;SDS011;4920;49.594;11.022;2023-07-30T11:13:37;2.05;;;1.50;;
9761;SDS011;4920;49.594;11.022;2023-07-30T11:16:08;1.60;;;1.50;;
9761;SDS011;4920;49.594;11.022;2023-07-30T11:18:38;3.58;;;1.75;;
9761;SDS011;4920;49.594;11.022;2023-07-30T11:21:08;1.40;;;1.30;;
9761;SDS011;4920;49.594;11.022;2023-07-30T11:23:38;2.83;;;1.40;;
9761;SDS011;4920;49.594;11.022;2023-07-30T11:26:09;2.03;;;1.40;;
9761;SDS011;4920;49.594;11.022;2023-07-30T11:28:43;2.58;;;1.60;;
9761;SDS011;4920;49.594;11.022;2023-07-30T11:31:13;1.40;;;1.30;;
9761;SDS011;4920;49.594;11.022;2023-07-30T11:33:43;1.58;;;1.45;;
9761;SDS011;4920;49.594;11.022;2023-07-30T11:36:15;1.52;;;1.42;;
9761;SDS011;4920;49.594;11.022;2023-07-30T11:38:44;1.70;;;1.55;;
9761;SDS011;4920;49.594;11.022;2023-07-30T11:41:14;2.50;;;1.60;;
9761;SDS011;4920;49.594;11.022;2023-07-30T11:43:44;1.60;;;1.50;;
9761;SDS011;4920;49.594;11.022;2023-07-30T11:46:13;2.75;;;1.63;;
9761;SDS011;4920;49.594;11.022;2023-07-30T11:48:44;1.80;;;1.70;;
9761;SDS011;4920;49.594;11.022;2023-07-30T11:51:21;2.00;;;1.70;;
9761;SDS011;4920;49.594;11.022;2023-07-30T11:53:52;2.92;;;1.80;;
9761;SDS011;4920;49.594;11.022;2023-07-30T11:56:22;2.05;;;1.52;;
9761;SDS011;4920;49.594;11.022;2023-07-30T11:58:55;2.25;;;1.80;;
9761;SDS011;4920;49.594;11.022;2023-07-30T12:01:26;1.65;;;1.52;;
9761;SDS011;4920;49.594;11.022;2023-07-30T12:03:56;2.45;;;1.85;;
9761;SDS011;4920;49.594;11.022;2023-07-30T12:06:37;1.70;;;1.45;;
9761;SDS011;4920;49.594;11.022;2023-07-30T12:09:09;2.55;;;1.77;;
9761;SDS011;4920;49.594;11.022;2023-07-30T12:11:49;2.25;;;1.67;;
9761;SDS011;4920;49.594;11.022;2023-07-30T12:14:22;2.15;;;1.80;;
9761;SDS011;4920;49.594;11.022;2023-07-30T12:16:57;1.88;;;1.70;;
9761;SDS011;4920;49.594;11.022;2023-07-30T12:19:27;1.80;;;1.70;;
9761;SDS011;4920;49.594;11.022;2023-07-30T12:21:56;2.72;;;1.80;;
9761;SDS011;4920;49.594;11.022;2023-07-30T12:24:24;3.80;;;1.77;;
9761;SDS011;4920;49.594;11.022;2023-07-30T12:26:53;1.73;;;1.60;;
9761;SDS011;4920;49.594;11.022;2023-07-30T12:29:23;2.65;;;1.80;;
9761;SDS011;4920;49.594;11.022;2023-07-30T12:31:52;2.20;;;1.60;;
9761;SDS011;4920;49.594;11.022;2023-07-30T12:34:23;3.78;;;1.80;;
9761;SDS011;4920;49.594;11.022;2023-07-30T12:36:52;3.15;;;1.73;;
9761;SDS011;4920;49.594;11.022;2023-07-30T12:39:21;2.05;;;1.85;;
9761;SDS011;4920;49.594;11.022;2023-07-30T12:41:50;2.00;;;1.80;;
9761;SDS011;4920;49.594;11.022;2023-07-30T12:44:19;1.60;;;1.50;;
9761;SDS011;4920;49.594;11.022;2023-07-30T12:46:49;2.17;;;1.70;;
9761;SDS011;4920;49.594;11.022;2023-07-30T12:49:18;1.85;;;1.70;;
9761;SDS011;4920;49.594;11.022;2023-07-30T12:51:46;2.30;;;1.50;;
9761;SDS011;4920;49.594;11.022;2023-07-30T12:54:15;2.00;;;1.65;;
9761;SDS011;4920;49.594;11.022;2023-07-30T12:56:44;2.65;;;1.65;;
9761;SDS011;4920;49.594;11.022;2023-07-30T12:59:12;1.70;;;1.60;;
9761;SDS011;4920;49.594;11.022;2023-07-30T13:01:41;4.07;;;1.70;;
9761;SDS011;4920;49.594;11.022;2023-07-30T13:04:15;2.53;;;1.80;;
9761;SDS011;4920;49.594;11.022;2023-07-30T13:06:44;1.92;;;1.60;;
9761;SDS011;4920;49.594;11.022;2023-07-30T13:09:13;3.75;;;1.70;;
9761;SDS011;4920;49.594;11.022;2023-07-30T13:11:42;3.90;;;1.83;;
9761;SDS011;4920;49.594;11.022;2023-07-30T13:14:10;2.50;;;1.92;;
9761;SDS011;4920;49.594;11.022;2023-07-30T13:16:39;2.55;;;1.95;;
9761;SDS011;4920;49.594;11.022;2023-07-30T13:19:08;2.92;;;1.80;;
9761;SDS011;4920;49.594;11.022;2023-07-30T13:21:38;2.72;;;1.75;;
9761;SDS011;4920;49.594;11.022;2023-07-30T13:24:07;3.92;;;1.60;;
9761;SDS011;4920;49.594;11.022;2023-07-30T13:26:36;2.33;;;1.80;;
9761;SDS011;4920;49.594;11.022;2023-07-30T13:29:07;1.60;;;1.50;;
9761;SDS011;4920;49.594;11.022;2023-07-30T13:31:36;1.70;;;1.60;;
9761;SDS011;4920;49.594;11.022;2023-07-30T13:34:07;2.17;;;1.80;;
9761;SDS011;4920;49.594;11.022;2023-07-30T13:36:36;5.13;;;1.60;;
9761;SDS011;4920;49.594;11.022;2023-07-30T13:39:06;1.98;;;1.80;;
9761;SDS011;4920;49.594;11.022;2023-07-30T13:41:39;1.73;;;1.55;;
9761;SDS011;4920;49.594;11.022;2023-07-30T13:44:08;1.60;;;1.40;;
9761;SDS011;4920;49.594;11.022;2023-07-30T13:46:37;4.55;;;1.63;;
9761;SDS011;4920;49.594;11.022;2023-07-30T13:49:07;1.88;;;1.58;;
9761;SDS011;4920;49.594;11.022;2023-07-30T13:51:36;3.10;;;1.65;;
9761;SDS011;4920;49.594;11.022;2023-07-30T13:54:06;3.50;;;1.63;;
9761;SDS011;4920;49.594;11.022;2023-07-30T13:56:39;1.63;;;1.50;;
9761;SDS011;4920;49.594;11.022;2023-07-30T13:59:08;3.40;;;1.80;;
9761;SDS011;4920;49.594;11.022;2023-07-30T14:01:39;2.25;;;1.65;;
9761;SDS011;4920;49.594;11.022;2023-07-30T14:04:08;2.47;;;1.70;;
9761;SDS011;4920;49.594;11.022;2023-07-30T14:06:38;1.80;;;1.60;;
9761;SDS011;4920;49.594;11.022;2023-07-30T14:09:08;2.20;;;1.70;;
9761;SDS011;4920;49.594;11.022;2023-07-30T14:11:37;1.83;;;1.65;;
9761;SDS011;4920;49.594;11.022;2023-07-30T14:14:09;2.47;;;1.55;;
9761;SDS011;4920;49.594;11.022;2023-07-30T14:16:39;1.98;;;1.77;;
9761;SDS011;4920;49.594;11.022;2023-07-30T14:19:08;1.60;;;1.50;;
9761;SDS011;4920;49.594;11.022;2023-07-30T14:21:37;1.95;;;1.60;;
9761;SDS011;4920;49.594;11.022;2023-07-30T14:24:08;2.42;;;1.33;;
9761;SDS011;4920;49.594;11.022;2023-07-30T14:26:37;1.73;;;1.50;;
9761;SDS011;4920;49.594;11.022;2023-07-30T14:29:06;1.85;;;1.42;;
9761;SDS011;4920;49.594;11.022;2023-07-30T14:31:34;2.83;;;1.35;;
9761;SDS011;4920;49.594;11.022;2023-07-30T14:34:06;1.83;;;1.52;;
9761;SDS011;4920;49.594;11.022;2023-07-30T14:36:35;2.90;;;1.33;;
9761;SDS011;4920;49.594;11.022;2023-07-30T14:39:04;2.05;;;1.33;;
9761;SDS011;4920;49.594;11.022;2023-07-30T14:41:34;1.95;;;1.30;;
9761;SDS011;4920;49.594;11.022;2023-07-30T14:44:03;1.92;;;1.25;;
9761;SDS011;4920;49.594;11.022;2023-07-30T14:46:32;1.63;;;1.30;;
9761;SDS011;4920;49.594;11.022;2023-07-30T14:49:01;2.35;;;1.30;;
9761;SDS011;4920;49.594;11.022;2023-07-30T14:51:30;1.63;;;1.27;;
9761;SDS011;4920;49.594;11.022;2023-07-30T14:53:58;1.60;;;1.20;;
9761;SDS011;4920;49.594;11.022;2023-07-30T14:56:27;2.95;;;1.50;;
9761;SDS011;4920;49.594;11.022;2023-07-30T14:58:57;1.95;;;1.10;;
9761;SDS011;4920;49.594;11.022;2023-07-30T15:01:27;1.52;;;1.40;;
9761;SDS011;4920;49.594;11.022;2023-07-30T15:03:57;2.03;;;1.40;;
9761;SDS011;4920;49.594;11.022;2023-07-30T15:06:26;2.03;;;1.50;;
9761;SDS011;4920;49.594;11.022;2023-07-30T15:08:58;3.25;;;1.35;;
9761;SDS011;4920;49.594;11.022;2023-07-30T15:11:32;1.60;;;1.27;;
9761;SDS011;4920;49.594;11.022;2023-07-30T15:14:02;1.35;;;1.20;;
9761;SDS011;4920;49.594;11.022;2023-07-30T15:16:31;3.75;;;1.38;;